sensor_id;sensor_type;location;lat;lon;timestamp;P1;durP1;ratioP1;P2;durP2;ratioP2
71456;SDS011;59263;48.160;11.752;2023-07-02T00:00:17;4.20;;;1.03;;
71456;SDS011;59263;48.160;11.752;2023-07-02T00:02:42;3.70;;;1.30;;
71456;SDS011;59263;48.160;11.752;2023-07-02T00:05:07;5.43;;;1.40;;
71456;SDS011;59263;48.160;11.752;2023-07-02T00:07:33;3.60;;;1.03;;
71456;SDS011;59263;48.160;11.752;2023-07-02T00:10:00;3.17;;;1.15;;
71456;SDS011;59263;48.160;11.752;2023-07-02T00:12:26;5.30;;;1.47;;
71456;SDS011;59263;48.160;11.752;2023-07-02T00:14:51;5.28;;;1.17;;
71456;SDS011;59263;48.160;11.752;2023-07-02T00:17:18;4.78;;;1.75;;
71456;SDS011;59263;48.160;11.752;2023-07-02T00:19:43;3.33;;;1.30;;
71456;SDS011;59263;48.160;11.752;2023-07-02T00:22:10;4.97;;;1.67;;
71456;SDS011;59263;48.160;11.752;2023-07-02T00:24:35;4.70;;;1.60;;
71456;SDS011;59263;48.160;11.752;2023-07-02T00:27:01;5.45;;;1.63;;
71456;SDS011;59263;48.160;11.752;2023-07-02T00:29:27;4.00;;;1.30;;
71456;SDS011;59263;48.160;11.752;2023-07-02T00:31:52;14.37;;;1.10;;
71456;SDS011;59263;48.160;11.752;2023-07-02T00:34:18;4.03;;;1.10;;
71456;SDS011;59263;48.160;11.752;2023-07-02T00:36:43;4.40;;;1.20;;
71456;SDS011;59263;48.160;11.752;2023-07-02T00:39:09;3.60;;;1.10;;
71456;SDS011;59263;48.160;11.752;2023-07-02T00:41:34;3.83;;;1.20;;
71456;SDS011;59263;48.160;11.752;2023-07-02T00:43:59;4.27;;;1.40;;
71456;SDS011;59263;48.160;11.752;2023-07-02T00:46:25;4.30;;;1.30;;
71456;SDS011;59263;48.160;11.752;2023-07-02T00:48:51;4.75;;;1.30;;
71456;SDS011;59263;48.160;11.752;2023-07-02T00:51:19;5.50;;;1.42;;
71456;SDS011;59263;48.160;11.752;2023-07-02T00:53:47;3.42;;;1.20;;
71456;SDS011;59263;48.160;11.752;2023-07-02T00:56:13;4.65;;;1.23;;
71456;SDS011;59263;48.160;11.752;2023-07-02T00:58:40;3.08;;;1.05;;
71456;SDS011;59263;48.160;11.752;2023-07-02T01:01:22;4.78;;;1.50;;
71456;SDS011;59263;48.160;11.752;2023-07-02T01:03:58;4.93;;;1.13;;
71456;SDS011;59263;48.160;11.752;2023-07-02T01:06:26;4.45;;;1.27;;
71456;SDS011;59263;48.160;11.752;2023-07-02T01:08:54;3.42;;;1.02;;
71456;SDS011;59263;48.160;11.752;2023-07-02T01:11:21;4.35;;;1.55;;
71456;SDS011;59263;48.160;11.752;2023-07-02T01:13:50;3.97;;;1.15;;
71456;SDS011;59263;48.160;11.752;2023-07-02T01:16:18;4.43;;;1.20;;
71456;SDS011;59263;48.160;11.752;2023-07-02T01:18:44;4.30;;;1.25;;
71456;SDS011;59263;48.160;11.752;2023-07-02T01:21:10;4.60;;;1.40;;
71456;SDS011;59263;48.160;11.752;2023-07-02T01:23:35;3.90;;;1.20;;
71456;SDS011;59263;48.160;11.752;2023-07-02T01:26:00;3.35;;;1.13;;
71456;SDS011;59263;48.160;11.752;2023-07-02T01:28:33;3.00;;;0.90;;
71456;SDS011;59263;48.160;11.752;2023-07-02T01:30:59;3.05;;;0.90;;
71456;SDS011;59263;48.160;11.752;2023-07-02T01:33:25;3.38;;;1.02;;
71456;SDS011;59263;48.160;11.752;2023-07-02T01:35:50;2.73;;;0.93;;
71456;SDS011;59263;48.160;11.752;2023-07-02T01:38:16;3.50;;;1.17;;
71456;SDS011;59263;48.160;11.752;2023-07-02T01:40:41;2.47;;;0.87;;
71456;SDS011;59263;48.160;11.752;2023-07-02T01:43:06;4.07;;;1.00;;
71456;SDS011;59263;48.160;11.752;2023-07-02T01:45:31;3.07;;;1.00;;
71456;SDS011;59263;48.160;11.752;2023-07-02T01:47:57;3.65;;;1.15;;
71456;SDS011;59263;48.160;11.752;2023-07-02T01:50:22;3.13;;;0.80;;
71456;SDS011;59263;48.160;11.752;2023-07-02T01:52:47;2.37;;;0.90;;
71456;SDS011;59263;48.160;11.752;2023-07-02T01:55:13;3.00;;;1.03;;
71456;SDS011;59263;48.160;11.752;2023-07-02T01:57:38;3.33;;;1.07;;
71456;SDS011;59263;48.160;11.752;2023-07-02T02:00:04;2.73;;;0.90;;
71456;SDS011;59263;48.160;11.752;2023-07-02T02:02:29;2.55;;;0.90;;
71456;SDS011;59263;48.160;11.752;2023-07-02T02:04:55;2.03;;;0.73;;
71456;SDS011;59263;48.160;11.752;2023-07-02T02:07:21;2.42;;;0.70;;
71456;SDS011;59263;48.160;11.752;2023-07-02T02:09:46;2.60;;;0.90;;
71456;SDS011;59263;48.160;11.752;2023-07-02T02:12:12;2.23;;;0.83;;
71456;SDS011;59263;48.160;11.752;2023-07-02T02:14:38;2.85;;;0.95;;
71456;SDS011;59263;48.160;11.752;2023-07-02T02:17:04;2.00;;;0.73;;
71456;SDS011;59263;48.160;11.752;2023-07-02T02:19:29;3.33;;;0.77;;
71456;SDS011;59263;48.160;11.752;2023-07-02T02:21:54;2.80;;;0.70;;
71456;SDS011;59263;48.160;11.752;2023-07-02T02:24:20;2.73;;;0.67;;
71456;SDS011;59263;48.160;11.752;2023-07-02T02:26:45;2.45;;;0.80;;
71456;SDS011;59263;48.160;11.752;2023-07-02T02:29:10;2.58;;;0.80;;
71456;SDS011;59263;48.160;11.752;2023-07-02T02:31:35;2.40;;;0.70;;
71456;SDS011;59263;48.160;11.752;2023-07-02T02:34:01;3.30;;;0.70;;
71456;SDS011;59263;48.160;11.752;2023-07-02T02:36:26;2.07;;;0.80;;
71456;SDS011;59263;48.160;11.752;2023-07-02T02:38:51;3.30;;;0.90;;
71456;SDS011;59263;48.160;11.752;2023-07-02T02:41:17;2.77;;;0.90;;
71456;SDS011;59263;48.160;11.752;2023-07-02T02:43:42;2.03;;;0.83;;
71456;SDS011;59263;48.160;11.752;2023-07-02T02:46:09;2.63;;;0.65;;
71456;SDS011;59263;48.160;11.752;2023-07-02T02:48:37;2.75;;;0.90;;
71456;SDS011;59263;48.160;11.752;2023-07-02T02:51:03;2.67;;;0.90;;
71456;SDS011;59263;48.160;11.752;2023-07-02T02:53:28;2.33;;;0.80;;
71456;SDS011;59263;48.160;11.752;2023-07-02T02:55:53;2.97;;;0.87;;
71456;SDS011;59263;48.160;11.752;2023-07-02T02:58:19;2.27;;;0.80;;
71456;SDS011;59263;48.160;11.752;2023-07-02T03:00:44;2.30;;;0.95;;
71456;SDS011;59263;48.160;11.752;2023-07-02T03:03:11;2.97;;;0.87;;
71456;SDS011;59263;48.160;11.752;2023-07-02T03:05:37;3.25;;;0.88;;
71456;SDS011;59263;48.160;11.752;2023-07-02T03:08:02;2.50;;;0.90;;
71456;SDS011;59263;48.160;11.752;2023-07-02T03:10:28;2.80;;;0.75;;
71456;SDS011;59263;48.160;11.752;2023-07-02T03:12:54;2.50;;;0.70;;
71456;SDS011;59263;48.160;11.752;2023-07-02T03:15:19;3.95;;;1.10;;
71456;SDS011;59263;48.160;11.752;2023-07-02T03:17:45;2.30;;;0.77;;
71456;SDS011;59263;48.160;11.752;2023-07-02T03:20:10;2.30;;;0.80;;
71456;SDS011;59263;48.160;11.752;2023-07-02T03:22:37;2.30;;;0.70;;
71456;SDS011;59263;48.160;11.752;2023-07-02T03:25:02;3.17;;;0.93;;
71456;SDS011;59263;48.160;11.752;2023-07-02T03:27:28;3.92;;;0.93;;
71456;SDS011;59263;48.160;11.752;2023-07-02T03:29:53;2.50;;;0.90;;
71456;SDS011;59263;48.160;11.752;2023-07-02T03:32:19;2.67;;;0.90;;
71456;SDS011;59263;48.160;11.752;2023-07-02T03:34:44;4.83;;;1.27;;
71456;SDS011;59263;48.160;11.752;2023-07-02T03:37:09;3.67;;;0.97;;
71456;SDS011;59263;48.160;11.752;2023-07-02T03:39:35;2.80;;;1.00;;
71456;SDS011;59263;48.160;11.752;2023-07-02T03:42:00;5.73;;;1.33;;
71456;SDS011;59263;48.160;11.752;2023-07-02T03:44:25;3.40;;;1.03;;
71456;SDS011;59263;48.160;11.752;2023-07-02T03:46:52;3.73;;;1.10;;
71456;SDS011;59263;48.160;11.752;2023-07-02T03:49:17;4.10;;;1.20;;
71456;SDS011;59263;48.160;11.752;2023-07-02T03:51:42;4.10;;;1.27;;
71456;SDS011;59263;48.160;11.752;2023-07-02T03:54:08;14.70;;;1.37;;
71456;SDS011;59263;48.160;11.752;2023-07-02T03:56:33;4.97;;;1.40;;
71456;SDS011;59263;48.160;11.752;2023-07-02T03:58:58;4.53;;;1.43;;
71456;SDS011;59263;48.160;11.752;2023-07-02T04:01:24;5.17;;;1.63;;
71456;SDS011;59263;48.160;11.752;2023-07-02T04:03:50;3.67;;;1.17;;
71456;SDS011;59263;48.160;11.752;2023-07-02T04:06:16;7.97;;;1.60;;
71456;SDS011;59263;48.160;11.752;2023-07-02T04:08:42;3.55;;;1.25;;
71456;SDS011;59263;48.160;11.752;2023-07-02T04:11:08;6.57;;;1.50;;
71456;SDS011;59263;48.160;11.752;2023-07-02T04:13:33;3.83;;;1.30;;
71456;SDS011;59263;48.160;11.752;2023-07-02T04:15:58;4.10;;;1.25;;
71456;SDS011;59263;48.160;11.752;2023-07-02T04:18:23;4.40;;;1.27;;
71456;SDS011;59263;48.160;11.752;2023-07-02T04:20:49;3.47;;;1.10;;
71456;SDS011;59263;48.160;11.752;2023-07-02T04:23:14;3.87;;;1.10;;
71456;SDS011;59263;48.160;11.752;2023-07-02T04:25:40;4.33;;;1.20;;
71456;SDS011;59263;48.160;11.752;2023-07-02T04:28:05;7.53;;;1.50;;
71456;SDS011;59263;48.160;11.752;2023-07-02T04:30:30;5.63;;;1.20;;
71456;SDS011;59263;48.160;11.752;2023-07-02T04:32:56;4.18;;;1.15;;
71456;SDS011;59263;48.160;11.752;2023-07-02T04:35:21;3.00;;;1.00;;
71456;SDS011;59263;48.160;11.752;2023-07-02T04:37:46;3.67;;;1.10;;
71456;SDS011;59263;48.160;11.752;2023-07-02T04:40:12;4.63;;;1.40;;
71456;SDS011;59263;48.160;11.752;2023-07-02T04:42:38;4.07;;;1.37;;
71456;SDS011;59263;48.160;11.752;2023-07-02T04:45:05;6.13;;;1.60;;
71456;SDS011;59263;48.160;11.752;2023-07-02T04:47:32;4.65;;;1.42;;
71456;SDS011;59263;48.160;11.752;2023-07-02T04:49:58;3.93;;;1.10;;
71456;SDS011;59263;48.160;11.752;2023-07-02T04:52:24;4.35;;;1.27;;
71456;SDS011;59263;48.160;11.752;2023-07-02T04:54:49;4.67;;;1.53;;
71456;SDS011;59263;48.160;11.752;2023-07-02T04:57:14;5.00;;;1.43;;
71456;SDS011;59263;48.160;11.752;2023-07-02T04:59:43;4.95;;;1.50;;
71456;SDS011;59263;48.160;11.752;2023-07-02T05:02:10;4.43;;;1.42;;
71456;SDS011;59263;48.160;11.752;2023-07-02T05:04:36;5.35;;;1.70;;
71456;SDS011;59263;48.160;11.752;2023-07-02T05:07:05;5.15;;;1.48;;
71456;SDS011;59263;48.160;11.752;2023-07-02T05:09:30;3.60;;;1.00;;
71456;SDS011;59263;48.160;11.752;2023-07-02T05:11:56;4.77;;;1.47;;
71456;SDS011;59263;48.160;11.752;2023-07-02T05:14:21;4.30;;;1.30;;
71456;SDS011;59263;48.160;11.752;2023-07-02T05:16:47;4.07;;;1.23;;
71456;SDS011;59263;48.160;11.752;2023-07-02T05:19:13;2.87;;;1.07;;
71456;SDS011;59263;48.160;11.752;2023-07-02T05:21:38;4.57;;;1.40;;
71456;SDS011;59263;48.160;11.752;2023-07-02T05:24:04;5.33;;;1.10;;
71456;SDS011;59263;48.160;11.752;2023-07-02T05:26:30;5.85;;;1.38;;
71456;SDS011;59263;48.160;11.752;2023-07-02T05:28:55;4.90;;;1.30;;
71456;SDS011;59263;48.160;11.752;2023-07-02T05:31:20;3.83;;;1.30;;
71456;SDS011;59263;48.160;11.752;2023-07-02T05:33:46;5.40;;;1.60;;
71456;SDS011;59263;48.160;11.752;2023-07-02T05:36:11;4.60;;;1.50;;
71456;SDS011;59263;48.160;11.752;2023-07-02T05:38:37;5.85;;;1.50;;
71456;SDS011;59263;48.160;11.752;2023-07-02T05:41:02;4.37;;;1.37;;
71456;SDS011;59263;48.160;11.752;2023-07-02T05:43:28;4.25;;;1.33;;
71456;SDS011;59263;48.160;11.752;2023-07-02T05:45:54;3.27;;;1.03;;
71456;SDS011;59263;48.160;11.752;2023-07-02T05:48:19;4.87;;;1.40;;
71456;SDS011;59263;48.160;11.752;2023-07-02T05:50:44;3.97;;;1.20;;
71456;SDS011;59263;48.160;11.752;2023-07-02T05:53:10;5.13;;;1.58;;
71456;SDS011;59263;48.160;11.752;2023-07-02T05:55:36;4.87;;;1.53;;
71456;SDS011;59263;48.160;11.752;2023-07-02T05:58:01;5.43;;;1.33;;
71456;SDS011;59263;48.160;11.752;2023-07-02T06:00:27;5.55;;;1.55;;
71456;SDS011;59263;48.160;11.752;2023-07-02T06:02:54;3.67;;;1.25;;
71456;SDS011;59263;48.160;11.752;2023-07-02T06:05:20;4.23;;;1.47;;
71456;SDS011;59263;48.160;11.752;2023-07-02T06:07:45;3.42;;;1.25;;
71456;SDS011;59263;48.160;11.752;2023-07-02T06:10:11;4.33;;;1.20;;
71456;SDS011;59263;48.160;11.752;2023-07-02T06:12:36;3.70;;;1.10;;
71456;SDS011;59263;48.160;11.752;2023-07-02T06:15:02;4.13;;;1.43;;
71456;SDS011;59263;48.160;11.752;2023-07-02T06:17:27;4.35;;;1.50;;
71456;SDS011;59263;48.160;11.752;2023-07-02T06:19:55;4.40;;;1.30;;
71456;SDS011;59263;48.160;11.752;2023-07-02T06:22:21;4.93;;;1.17;;
71456;SDS011;59263;48.160;11.752;2023-07-02T06:24:46;6.87;;;1.83;;
71456;SDS011;59263;48.160;11.752;2023-07-02T06:27:11;4.00;;;1.20;;
71456;SDS011;59263;48.160;11.752;2023-07-02T06:29:37;5.60;;;1.87;;
71456;SDS011;59263;48.160;11.752;2023-07-02T06:32:02;5.17;;;1.67;;
71456;SDS011;59263;48.160;11.752;2023-07-02T06:34:29;3.85;;;1.17;;
71456;SDS011;59263;48.160;11.752;2023-07-02T06:36:54;4.97;;;1.27;;
71456;SDS011;59263;48.160;11.752;2023-07-02T06:39:20;4.70;;;1.20;;
71456;SDS011;59263;48.160;11.752;2023-07-02T06:41:46;4.82;;;1.50;;
71456;SDS011;59263;48.160;11.752;2023-07-02T06:44:11;4.05;;;1.10;;
71456;SDS011;59263;48.160;11.752;2023-07-02T06:46:37;5.30;;;1.63;;
71456;SDS011;59263;48.160;11.752;2023-07-02T06:49:02;3.95;;;1.42;;
71456;SDS011;59263;48.160;11.752;2023-07-02T06:51:28;4.37;;;1.30;;
71456;SDS011;59263;48.160;11.752;2023-07-02T06:53:54;4.85;;;1.48;;
71456;SDS011;59263;48.160;11.752;2023-07-02T06:56:19;4.17;;;1.43;;
71456;SDS011;59263;48.160;11.752;2023-07-02T06:58:45;4.50;;;1.50;;
71456;SDS011;59263;48.160;11.752;2023-07-02T07:01:10;6.50;;;1.40;;
71456;SDS011;59263;48.160;11.752;2023-07-02T07:03:36;4.78;;;1.63;;
71456;SDS011;59263;48.160;11.752;2023-07-02T07:06:01;4.50;;;1.60;;
71456;SDS011;59263;48.160;11.752;2023-07-02T07:08:27;4.50;;;1.50;;
71456;SDS011;59263;48.160;11.752;2023-07-02T07:10:53;5.13;;;1.70;;
71456;SDS011;59263;48.160;11.752;2023-07-02T07:13:18;4.40;;;1.33;;
71456;SDS011;59263;48.160;11.752;2023-07-02T07:15:43;4.00;;;1.40;;
71456;SDS011;59263;48.160;11.752;2023-07-02T07:18:09;6.82;;;1.73;;
71456;SDS011;59263;48.160;11.752;2023-07-02T07:20:35;5.45;;;1.60;;
71456;SDS011;59263;48.160;11.752;2023-07-02T07:23:01;5.13;;;1.67;;
71456;SDS011;59263;48.160;11.752;2023-07-02T07:25:27;4.18;;;1.27;;
71456;SDS011;59263;48.160;11.752;2023-07-02T07:27:53;5.07;;;1.50;;
71456;SDS011;59263;48.160;11.752;2023-07-02T07:30:19;5.93;;;1.80;;
71456;SDS011;59263;48.160;11.752;2023-07-02T07:32:48;5.97;;;2.13;;
71456;SDS011;59263;48.160;11.752;2023-07-02T07:35:17;7.07;;;1.77;;
71456;SDS011;59263;48.160;11.752;2023-07-02T07:37:43;8.77;;;1.63;;
71456;SDS011;59263;48.160;11.752;2023-07-02T07:40:09;5.15;;;1.70;;
71456;SDS011;59263;48.160;11.752;2023-07-02T07:42:35;4.63;;;1.63;;
71456;SDS011;59263;48.160;11.752;2023-07-02T07:45:01;4.90;;;1.60;;
71456;SDS011;59263;48.160;11.752;2023-07-02T07:47:27;3.37;;;1.27;;
71456;SDS011;59263;48.160;11.752;2023-07-02T07:49:53;5.45;;;1.73;;
71456;SDS011;59263;48.160;11.752;2023-07-02T07:52:19;4.33;;;1.50;;
71456;SDS011;59263;48.160;11.752;2023-07-02T07:54:45;5.28;;;1.80;;
71456;SDS011;59263;48.160;11.752;2023-07-02T07:57:10;4.72;;;1.63;;
71456;SDS011;59263;48.160;11.752;2023-07-02T07:59:35;4.67;;;1.50;;
71456;SDS011;59263;48.160;11.752;2023-07-02T08:02:00;4.93;;;1.60;;
71456;SDS011;59263;48.160;11.752;2023-07-02T08:04:26;5.30;;;1.50;;
71456;SDS011;59263;48.160;11.752;2023-07-02T08:06:51;6.87;;;1.83;;
71456;SDS011;59263;48.160;11.752;2023-07-02T08:09:16;5.13;;;1.80;;
71456;SDS011;59263;48.160;11.752;2023-07-02T08:11:42;5.03;;;1.50;;
71456;SDS011;59263;48.160;11.752;2023-07-02T08:14:07;5.67;;;1.67;;
71456;SDS011;59263;48.160;11.752;2023-07-02T08:16:32;4.70;;;1.60;;
71456;SDS011;59263;48.160;11.752;2023-07-02T08:18:58;6.93;;;1.90;;
71456;SDS011;59263;48.160;11.752;2023-07-02T08:21:23;7.00;;;2.40;;
71456;SDS011;59263;48.160;11.752;2023-07-02T08:23:48;5.00;;;1.80;;
71456;SDS011;59263;48.160;11.752;2023-07-02T08:26:14;6.80;;;1.80;;
71456;SDS011;59263;48.160;11.752;2023-07-02T08:28:39;6.10;;;2.23;;
71456;SDS011;59263;48.160;11.752;2023-07-02T08:31:04;7.03;;;2.13;;
71456;SDS011;59263;48.160;11.752;2023-07-02T08:33:30;5.73;;;1.70;;
71456;SDS011;59263;48.160;11.752;2023-07-02T08:35:55;5.97;;;2.03;;
71456;SDS011;59263;48.160;11.752;2023-07-02T08:38:22;6.18;;;2.10;;
71456;SDS011;59263;48.160;11.752;2023-07-02T08:40:48;5.85;;;2.20;;
71456;SDS011;59263;48.160;11.752;2023-07-02T08:43:14;6.32;;;1.88;;
71456;SDS011;59263;48.160;11.752;2023-07-02T08:45:40;5.50;;;1.80;;
71456;SDS011;59263;48.160;11.752;2023-07-02T08:48:07;4.78;;;1.70;;
71456;SDS011;59263;48.160;11.752;2023-07-02T08:50:33;5.20;;;1.77;;
71456;SDS011;59263;48.160;11.752;2023-07-02T08:52:58;4.70;;;1.90;;
71456;SDS011;59263;48.160;11.752;2023-07-02T08:55:24;5.05;;;1.70;;
71456;SDS011;59263;48.160;11.752;2023-07-02T08:57:49;4.67;;;1.63;;
71456;SDS011;59263;48.160;11.752;2023-07-02T09:00:17;5.85;;;1.77;;
71456;SDS011;59263;48.160;11.752;2023-07-02T09:02:43;5.22;;;1.70;;
71456;SDS011;59263;48.160;11.752;2023-07-02T09:05:08;6.77;;;2.10;;
71456;SDS011;59263;48.160;11.752;2023-07-02T09:07:43;5.03;;;2.00;;
71456;SDS011;59263;48.160;11.752;2023-07-02T09:10:10;4.57;;;1.50;;
71456;SDS011;59263;48.160;11.752;2023-07-02T09:12:35;4.10;;;1.48;;
71456;SDS011;59263;48.160;11.752;2023-07-02T09:15:02;5.45;;;1.58;;
71456;SDS011;59263;48.160;11.752;2023-07-02T09:17:37;4.18;;;1.42;;
71456;SDS011;59263;48.160;11.752;2023-07-02T09:20:04;5.18;;;1.73;;
71456;SDS011;59263;48.160;11.752;2023-07-02T09:22:32;5.33;;;1.60;;
71456;SDS011;59263;48.160;11.752;2023-07-02T09:24:58;5.60;;;1.52;;
71456;SDS011;59263;48.160;11.752;2023-07-02T09:27:37;3.90;;;1.20;;
71456;SDS011;59263;48.160;11.752;2023-07-02T09:30:11;4.40;;;1.30;;
71456;SDS011;59263;48.160;11.752;2023-07-02T09:32:41;5.57;;;1.70;;
71456;SDS011;59263;48.160;11.752;2023-07-02T09:35:08;6.20;;;1.73;;
71456;SDS011;59263;48.160;11.752;2023-07-02T09:37:33;3.80;;;1.30;;
71456;SDS011;59263;48.160;11.752;2023-07-02T09:39:59;4.68;;;1.50;;
71456;SDS011;59263;48.160;11.752;2023-07-02T09:42:26;3.13;;;1.20;;
71456;SDS011;59263;48.160;11.752;2023-07-02T09:44:54;5.13;;;1.60;;
71456;SDS011;59263;48.160;11.752;2023-07-02T09:47:21;4.50;;;1.50;;
71456;SDS011;59263;48.160;11.752;2023-07-02T09:52:21;4.20;;;1.52;;
71456;SDS011;59263;48.160;11.752;2023-07-02T09:54:47;4.55;;;1.55;;
71456;SDS011;59263;48.160;11.752;2023-07-02T09:57:12;3.85;;;1.38;;
71456;SDS011;59263;48.160;11.752;2023-07-02T09:59:38;5.50;;;1.70;;
71456;SDS011;59263;48.160;11.752;2023-07-02T10:02:06;5.07;;;1.67;;
71456;SDS011;59263;48.160;11.752;2023-07-02T10:04:46;5.10;;;1.77;;
71456;SDS011;59263;48.160;11.752;2023-07-02T10:07:13;6.00;;;1.85;;
71456;SDS011;59263;48.160;11.752;2023-07-02T10:09:51;5.53;;;1.85;;
71456;SDS011;59263;48.160;11.752;2023-07-02T10:14:43;7.38;;;2.00;;
71456;SDS011;59263;48.160;11.752;2023-07-02T10:17:09;5.45;;;1.77;;
71456;SDS011;59263;48.160;11.752;2023-07-02T10:19:35;6.17;;;1.97;;
71456;SDS011;59263;48.160;11.752;2023-07-02T10:22:03;4.20;;;1.40;;
71456;SDS011;59263;48.160;11.752;2023-07-02T10:24:31;5.78;;;2.00;;
71456;SDS011;59263;48.160;11.752;2023-07-02T10:26:57;6.15;;;2.08;;
71456;SDS011;59263;48.160;11.752;2023-07-02T10:29:26;5.32;;;1.98;;
71456;SDS011;59263;48.160;11.752;2023-07-02T10:31:53;5.47;;;1.70;;
71456;SDS011;59263;48.160;11.752;2023-07-02T10:34:32;5.88;;;2.00;;
71456;SDS011;59263;48.160;11.752;2023-07-02T10:37:02;6.82;;;2.72;;
71456;SDS011;59263;48.160;11.752;2023-07-02T10:39:29;6.40;;;2.40;;
71456;SDS011;59263;48.160;11.752;2023-07-02T10:42:05;6.25;;;2.05;;
71456;SDS011;59263;48.160;11.752;2023-07-02T10:44:30;6.57;;;2.30;;
71456;SDS011;59263;48.160;11.752;2023-07-02T10:46:57;6.93;;;2.35;;
71456;SDS011;59263;48.160;11.752;2023-07-02T10:49:29;8.50;;;2.30;;
71456;SDS011;59263;48.160;11.752;2023-07-02T10:52:02;6.57;;;2.10;;
71456;SDS011;59263;48.160;11.752;2023-07-02T10:55:05;6.30;;;2.00;;
71456;SDS011;59263;48.160;11.752;2023-07-02T10:57:23;5.30;;;1.92;;
71456;SDS011;59263;48.160;11.752;2023-07-02T10:59:49;9.73;;;2.23;;
71456;SDS011;59263;48.160;11.752;2023-07-02T11:02:15;7.17;;;2.20;;
71456;SDS011;59263;48.160;11.752;2023-07-02T11:04:40;8.30;;;2.53;;
71456;SDS011;59263;48.160;11.752;2023-07-02T11:07:06;8.27;;;2.43;;
71456;SDS011;59263;48.160;11.752;2023-07-02T11:09:31;6.75;;;2.53;;
71456;SDS011;59263;48.160;11.752;2023-07-02T11:11:58;6.73;;;2.50;;
71456;SDS011;59263;48.160;11.752;2023-07-02T11:14:31;7.13;;;2.80;;
71456;SDS011;59263;48.160;11.752;2023-07-02T11:17:01;7.93;;;2.75;;
71456;SDS011;59263;48.160;11.752;2023-07-02T11:19:29;6.43;;;2.30;;
71456;SDS011;59263;48.160;11.752;2023-07-02T11:21:55;7.10;;;2.58;;
71456;SDS011;59263;48.160;11.752;2023-07-02T11:24:32;8.30;;;2.47;;
71456;SDS011;59263;48.160;11.752;2023-07-02T11:27:03;10.32;;;3.05;;
71456;SDS011;59263;48.160;11.752;2023-07-02T11:29:33;9.68;;;2.75;;
71456;SDS011;59263;48.160;11.752;2023-07-02T11:32:08;7.57;;;2.53;;
71456;SDS011;59263;48.160;11.752;2023-07-02T11:34:35;13.35;;;3.10;;
71456;SDS011;59263;48.160;11.752;2023-07-02T11:37:01;7.93;;;3.20;;
71456;SDS011;59263;48.160;11.752;2023-07-02T11:39:26;9.38;;;3.00;;
71456;SDS011;59263;48.160;11.752;2023-07-02T11:41:52;7.97;;;3.47;;
71456;SDS011;59263;48.160;11.752;2023-07-02T11:44:17;7.30;;;2.93;;
71456;SDS011;59263;48.160;11.752;2023-07-02T11:46:43;8.30;;;3.22;;
71456;SDS011;59263;48.160;11.752;2023-07-02T11:49:09;8.35;;;3.35;;
71456;SDS011;59263;48.160;11.752;2023-07-02T11:51:35;11.67;;;3.83;;
71456;SDS011;59263;48.160;11.752;2023-07-02T11:54:02;9.15;;;3.25;;
71456;SDS011;59263;48.160;11.752;2023-07-02T11:56:28;8.43;;;3.10;;
71456;SDS011;59263;48.160;11.752;2023-07-02T11:58:53;8.80;;;3.15;;
71456;SDS011;59263;48.160;11.752;2023-07-02T12:01:18;8.67;;;3.40;;
71456;SDS011;59263;48.160;11.752;2023-07-02T12:03:47;8.73;;;3.67;;
71456;SDS011;59263;48.160;11.752;2023-07-02T12:06:12;7.45;;;3.17;;
71456;SDS011;59263;48.160;11.752;2023-07-02T12:08:38;11.60;;;4.00;;
71456;SDS011;59263;48.160;11.752;2023-07-02T12:11:03;8.87;;;3.30;;
71456;SDS011;59263;48.160;11.752;2023-07-02T12:13:28;9.40;;;3.37;;
71456;SDS011;59263;48.160;11.752;2023-07-02T12:15:54;8.67;;;3.57;;
71456;SDS011;59263;48.160;11.752;2023-07-02T12:18:19;10.57;;;3.93;;
71456;SDS011;59263;48.160;11.752;2023-07-02T12:20:44;9.07;;;3.45;;
71456;SDS011;59263;48.160;11.752;2023-07-02T12:23:10;8.47;;;3.87;;
71456;SDS011;59263;48.160;11.752;2023-07-02T12:25:36;9.45;;;4.07;;
71456;SDS011;59263;48.160;11.752;2023-07-02T12:28:02;8.43;;;3.50;;
71456;SDS011;59263;48.160;11.752;2023-07-02T12:30:31;8.75;;;3.53;;
71456;SDS011;59263;48.160;11.752;2023-07-02T12:32:56;10.90;;;3.55;;
71456;SDS011;59263;48.160;11.752;2023-07-02T12:35:22;7.70;;;3.10;;
71456;SDS011;59263;48.160;11.752;2023-07-02T12:37:51;9.35;;;4.07;;
71456;SDS011;59263;48.160;11.752;2023-07-02T12:40:17;8.47;;;3.47;;
71456;SDS011;59263;48.160;11.752;2023-07-02T12:42:44;12.05;;;4.07;;
71456;SDS011;59263;48.160;11.752;2023-07-02T12:45:11;9.45;;;3.72;;
71456;SDS011;59263;48.160;11.752;2023-07-02T12:47:38;9.75;;;4.30;;
71456;SDS011;59263;48.160;11.752;2023-07-02T12:50:04;10.00;;;3.85;;
71456;SDS011;59263;48.160;11.752;2023-07-02T12:52:30;9.57;;;4.18;;
71456;SDS011;59263;48.160;11.752;2023-07-02T12:54:56;9.38;;;3.95;;
71456;SDS011;59263;48.160;11.752;2023-07-02T12:57:21;9.27;;;4.00;;
71456;SDS011;59263;48.160;11.752;2023-07-02T12:59:47;12.23;;;4.20;;
71456;SDS011;59263;48.160;11.752;2023-07-02T13:02:12;8.40;;;3.57;;
71456;SDS011;59263;48.160;11.752;2023-07-02T13:04:38;10.17;;;4.00;;
71456;SDS011;59263;48.160;11.752;2023-07-02T13:07:03;9.88;;;4.10;;
71456;SDS011;59263;48.160;11.752;2023-07-02T13:09:29;11.98;;;4.30;;
71456;SDS011;59263;48.160;11.752;2023-07-02T13:11:54;9.60;;;4.23;;
71456;SDS011;59263;48.160;11.752;2023-07-02T13:14:19;10.77;;;4.50;;
71456;SDS011;59263;48.160;11.752;2023-07-02T13:16:45;11.07;;;5.30;;
71456;SDS011;59263;48.160;11.752;2023-07-02T13:19:10;11.37;;;4.93;;
71456;SDS011;59263;48.160;11.752;2023-07-02T13:21:36;10.80;;;5.40;;
71456;SDS011;59263;48.160;11.752;2023-07-02T13:24:02;10.07;;;4.20;;
71456;SDS011;59263;48.160;11.752;2023-07-02T13:26:27;10.00;;;4.30;;
71456;SDS011;59263;48.160;11.752;2023-07-02T13:28:52;11.68;;;5.00;;
71456;SDS011;59263;48.160;11.752;2023-07-02T13:31:18;12.30;;;5.37;;
71456;SDS011;59263;48.160;11.752;2023-07-02T13:33:43;11.20;;;4.93;;
71456;SDS011;59263;48.160;11.752;2023-07-02T13:36:09;11.13;;;4.63;;
71456;SDS011;59263;48.160;11.752;2023-07-02T13:38:35;10.97;;;4.90;;
71456;SDS011;59263;48.160;11.752;2023-07-02T13:41:00;9.77;;;4.10;;
71456;SDS011;59263;48.160;11.752;2023-07-02T13:43:26;10.47;;;4.90;;
71456;SDS011;59263;48.160;11.752;2023-07-02T13:45:51;11.43;;;5.15;;
71456;SDS011;59263;48.160;11.752;2023-07-02T13:48:17;10.80;;;4.73;;
71456;SDS011;59263;48.160;11.752;2023-07-02T13:50:42;11.57;;;5.33;;
71456;SDS011;59263;48.160;11.752;2023-07-02T13:53:08;12.07;;;5.33;;
71456;SDS011;59263;48.160;11.752;2023-07-02T13:55:33;11.90;;;5.45;;
71456;SDS011;59263;48.160;11.752;2023-07-02T13:57:59;12.03;;;5.60;;
71456;SDS011;59263;48.160;11.752;2023-07-02T14:00:25;9.23;;;4.13;;
71456;SDS011;59263;48.160;11.752;2023-07-02T14:02:51;10.50;;;4.65;;
71456;SDS011;59263;48.160;11.752;2023-07-02T14:05:16;11.67;;;5.13;;
71456;SDS011;59263;48.160;11.752;2023-07-02T14:07:42;10.37;;;5.00;;
71456;SDS011;59263;48.160;11.752;2023-07-02T14:10:07;10.20;;;4.43;;
71456;SDS011;59263;48.160;11.752;2023-07-02T14:12:33;9.73;;;4.25;;
71456;SDS011;59263;48.160;11.752;2023-07-02T14:14:58;10.23;;;4.90;;
71456;SDS011;59263;48.160;11.752;2023-07-02T14:17:24;12.67;;;6.23;;
71456;SDS011;59263;48.160;11.752;2023-07-02T14:19:49;10.90;;;5.30;;
71456;SDS011;59263;48.160;11.752;2023-07-02T14:22:14;11.47;;;5.13;;
71456;SDS011;59263;48.160;11.752;2023-07-02T14:24:40;11.48;;;5.20;;
71456;SDS011;59263;48.160;11.752;2023-07-02T14:27:05;12.47;;;5.80;;
71456;SDS011;59263;48.160;11.752;2023-07-02T14:29:31;11.33;;;5.30;;
71456;SDS011;59263;48.160;11.752;2023-07-02T14:31:56;11.17;;;5.47;;